sensor_id;sensor_type;location;lat;lon;timestamp;P1;durP1;ratioP1;P2;durP2;ratioP2
9834;SDS011;4956;50.996;13.716;2022-07-23T00:00:54;7.65;;;6.80;;
9834;SDS011;4956;50.996;13.716;2022-07-23T00:04:14;6.75;;;5.72;;
9834;SDS011;4956;50.996;13.716;2022-07-23T00:07:34;6.55;;;5.28;;
9834;SDS011;4956;50.996;13.716;2022-07-23T00:10:54;7.30;;;6.35;;
9834;SDS011;4956;50.996;13.716;2022-07-23T00:14:15;6.97;;;6.23;;
9834;SDS011;4956;50.996;13.716;2022-07-23T00:17:35;7.60;;;6.70;;
9834;SDS011;4956;50.996;13.716;2022-07-23T00:20:56;9.43;;;7.18;;
9834;SDS011;4956;50.996;13.716;2022-07-23T00:24:16;8.80;;;6.50;;
9834;SDS011;4956;50.996;13.716;2022-07-23T00:27:36;7.07;;;6.43;;
9834;SDS011;4956;50.996;13.716;2022-07-23T00:30:56;7.67;;;6.83;;
9834;SDS011;4956;50.996;13.716;2022-07-23T00:34:17;10.83;;;7.87;;
9834;SDS011;4956;50.996;13.716;2022-07-23T00:37:38;10.23;;;8.18;;
9834;SDS011;4956;50.996;13.716;2022-07-23T00:41:01;10.50;;;8.50;;
9834;SDS011;4956;50.996;13.716;2022-07-23T00:44:22;11.70;;;8.30;;
9834;SDS011;4956;50.996;13.716;2022-07-23T00:47:44;8.15;;;7.00;;
9834;SDS011;4956;50.996;13.716;2022-07-23T00:51:04;7.60;;;6.30;;
9834;SDS011;4956;50.996;13.716;2022-07-23T00:54:25;6.18;;;5.57;;
9834;SDS011;4956;50.996;13.716;2022-07-23T00:57:46;5.82;;;5.32;;
9834;SDS011;4956;50.996;13.716;2022-07-23T01:01:07;5.38;;;4.88;;
9834;SDS011;4956;50.996;13.716;2022-07-23T01:04:28;5.72;;;5.07;;
9834;SDS011;4956;50.996;13.716;2022-07-23T01:07:48;5.17;;;4.70;;
9834;SDS011;4956;50.996;13.716;2022-07-23T01:11:09;5.70;;;4.97;;
9834;SDS011;4956;50.996;13.716;2022-07-23T01:14:29;5.47;;;4.68;;
9834;SDS011;4956;50.996;13.716;2022-07-23T01:17:50;5.30;;;4.75;;
9834;SDS011;4956;50.996;13.716;2022-07-23T01:21:11;5.70;;;4.30;;
9834;SDS011;4956;50.996;13.716;2022-07-23T01:24:33;5.05;;;4.55;;
9834;SDS011;4956;50.996;13.716;2022-07-23T01:27:58;5.68;;;5.18;;
9834;SDS011;4956;50.996;13.716;2022-07-23T01:31:18;4.90;;;4.50;;
9834;SDS011;4956;50.996;13.716;2022-07-23T01:34:39;5.20;;;4.65;;
9834;SDS011;4956;50.996;13.716;2022-07-23T01:38:00;5.10;;;4.60;;
9834;SDS011;4956;50.996;13.716;2022-07-23T01:41:21;4.95;;;4.45;;
9834;SDS011;4956;50.996;13.716;2022-07-23T01:44:42;5.07;;;4.53;;
9834;SDS011;4956;50.996;13.716;2022-07-23T01:48:07;5.13;;;4.50;;
9834;SDS011;4956;50.996;13.716;2022-07-23T01:51:30;4.75;;;4.35;;
9834;SDS011;4956;50.996;13.716;2022-07-23T01:54:56;5.03;;;4.53;;
9834;SDS011;4956;50.996;13.716;2022-07-23T01:58:16;4.83;;;4.40;;
9834;SDS011;4956;50.996;13.716;2022-07-23T02:01:37;5.13;;;4.70;;
9834;SDS011;4956;50.996;13.716;2022-07-23T02:04:57;4.60;;;4.20;;
9834;SDS011;4956;50.996;13.716;2022-07-23T02:08:19;5.07;;;4.57;;
9834;SDS011;4956;50.996;13.716;2022-07-23T02:11:40;5.30;;;4.90;;
9834;SDS011;4956;50.996;13.716;2022-07-23T02:15:00;4.78;;;4.38;;
9834;SDS011;4956;50.996;13.716;2022-07-23T02:18:21;4.60;;;4.20;;
9834;SDS011;4956;50.996;13.716;2022-07-23T02:21:41;5.53;;;5.00;;
9834;SDS011;4956;50.996;13.716;2022-07-23T02:25:02;4.93;;;4.47;;
9834;SDS011;4956;50.996;13.716;2022-07-23T02:28:24;4.70;;;4.30;;
9834;SDS011;4956;50.996;13.716;2022-07-23T02:31:45;4.70;;;4.25;;
9834;SDS011;4956;50.996;13.716;2022-07-23T02:35:06;5.10;;;4.65;;
9834;SDS011;4956;50.996;13.716;2022-07-23T02:38:27;5.50;;;5.00;;
9834;SDS011;4956;50.996;13.716;2022-07-23T02:41:47;5.10;;;4.70;;
9834;SDS011;4956;50.996;13.716;2022-07-23T02:45:07;5.40;;;5.00;;
9834;SDS011;4956;50.996;13.716;2022-07-23T02:48:28;5.60;;;5.10;;
9834;SDS011;4956;50.996;13.716;2022-07-23T02:51:48;5.40;;;4.93;;
9834;SDS011;4956;50.996;13.716;2022-07-23T02:55:09;5.32;;;4.82;;
9834;SDS011;4956;50.996;13.716;2022-07-23T02:58:30;5.63;;;4.97;;
9834;SDS011;4956;50.996;13.716;2022-07-23T03:01:51;6.20;;;5.10;;
9834;SDS011;4956;50.996;13.716;2022-07-23T03:05:12;10.43;;;5.40;;
9834;SDS011;4956;50.996;13.716;2022-07-23T03:08:33;5.40;;;5.00;;
9834;SDS011;4956;50.996;13.716;2022-07-23T03:11:53;5.90;;;5.30;;
9834;SDS011;4956;50.996;13.716;2022-07-23T03:15:14;5.90;;;5.32;;
9834;SDS011;4956;50.996;13.716;2022-07-23T03:18:35;5.40;;;4.90;;
9834;SDS011;4956;50.996;13.716;2022-07-23T03:21:55;5.70;;;5.20;;
9834;SDS011;4956;50.996;13.716;2022-07-23T03:25:16;6.07;;;5.32;;
9834;SDS011;4956;50.996;13.716;2022-07-23T03:28:36;5.68;;;5.18;;
9834;SDS011;4956;50.996;13.716;2022-07-23T03:31:59;6.03;;;5.43;;
9834;SDS011;4956;50.996;13.716;2022-07-23T03:35:19;5.97;;;5.22;;
9834;SDS011;4956;50.996;13.716;2022-07-23T03:38:53;5.70;;;5.20;;
9834;SDS011;4956;50.996;13.716;2022-07-23T03:42:13;5.60;;;5.05;;
9834;SDS011;4956;50.996;13.716;2022-07-23T03:45:33;5.68;;;5.15;;
9834;SDS011;4956;50.996;13.716;2022-07-23T03:48:54;6.50;;;5.88;;
9834;SDS011;4956;50.996;13.716;2022-07-23T03:52:14;6.37;;;5.70;;
9834;SDS011;4956;50.996;13.716;2022-07-23T03:55:34;5.70;;;5.20;;
9834;SDS011;4956;50.996;13.716;2022-07-23T03:58:55;6.07;;;5.50;;
9834;SDS011;4956;50.996;13.716;2022-07-23T04:02:15;5.80;;;5.30;;
9834;SDS011;4956;50.996;13.716;2022-07-23T04:05:36;5.43;;;4.90;;
9834;SDS011;4956;50.996;13.716;2022-07-23T04:09:01;6.40;;;5.00;;
9834;SDS011;4956;50.996;13.716;2022-07-23T04:12:23;6.20;;;5.70;;
9834;SDS011;4956;50.996;13.716;2022-07-23T04:15:44;7.68;;;6.05;;
9834;SDS011;4956;50.996;13.716;2022-07-23T04:19:04;6.70;;;6.10;;
9834;SDS011;4956;50.996;13.716;2022-07-23T04:22:30;6.32;;;5.72;;
9834;SDS011;4956;50.996;13.716;2022-07-23T04:25:50;6.40;;;5.80;;
9834;SDS011;4956;50.996;13.716;2022-07-23T04:29:11;6.72;;;6.13;;
9834;SDS011;4956;50.996;13.716;2022-07-23T04:32:32;7.10;;;6.40;;
9834;SDS011;4956;50.996;13.716;2022-07-23T04:35:52;7.50;;;6.80;;
9834;SDS011;4956;50.996;13.716;2022-07-23T04:39:14;6.93;;;6.15;;
9834;SDS011;4956;50.996;13.716;2022-07-23T04:42:35;8.80;;;6.60;;
9834;SDS011;4956;50.996;13.716;2022-07-23T04:45:56;8.50;;;6.13;;
9834;SDS011;4956;50.996;13.716;2022-07-23T04:49:16;7.07;;;6.22;;
9834;SDS011;4956;50.996;13.716;2022-07-23T04:52:37;6.10;;;5.50;;
9834;SDS011;4956;50.996;13.716;2022-07-23T04:55:57;6.68;;;6.00;;
9834;SDS011;4956;50.996;13.716;2022-07-23T04:59:17;6.18;;;5.63;;
9834;SDS011;4956;50.996;13.716;2022-07-23T05:02:40;6.30;;;5.70;;
9834;SDS011;4956;50.996;13.716;2022-07-23T05:06:01;6.10;;;5.25;;
9834;SDS011;4956;50.996;13.716;2022-07-23T05:09:23;6.03;;;5.47;;
9834;SDS011;4956;50.996;13.716;2022-07-23T05:12:44;5.32;;;4.90;;
9834;SDS011;4956;50.996;13.716;2022-07-23T05:16:05;5.07;;;4.68;;
9834;SDS011;4956;50.996;13.716;2022-07-23T05:19:26;5.97;;;5.28;;
9834;SDS011;4956;50.996;13.716;2022-07-23T05:22:47;5.75;;;5.13;;
9834;SDS011;4956;50.996;13.716;2022-07-23T05:26:07;5.00;;;4.60;;
9834;SDS011;4956;50.996;13.716;2022-07-23T05:29:28;6.05;;;5.38;;
9834;SDS011;4956;50.996;13.716;2022-07-23T05:32:49;5.90;;;5.40;;
9834;SDS011;4956;50.996;13.716;2022-07-23T05:36:11;6.45;;;5.82;;
9834;SDS011;4956;50.996;13.716;2022-07-23T05:39:41;5.72;;;5.20;;
9834;SDS011;4956;50.996;13.716;2022-07-23T05:43:01;6.32;;;5.72;;
9834;SDS011;4956;50.996;13.716;2022-07-23T05:46:22;5.85;;;5.25;;
9834;SDS011;4956;50.996;13.716;2022-07-23T05:49:47;5.43;;;4.90;;
9834;SDS011;4956;50.996;13.716;2022-07-23T05:53:29;6.80;;;5.93;;
9834;SDS011;4956;50.996;13.716;2022-07-23T05:57:08;6.30;;;5.57;;
9834;SDS011;4956;50.996;13.716;2022-07-23T06:00:28;6.78;;;5.63;;
9834;SDS011;4956;50.996;13.716;2022-07-23T06:03:49;5.57;;;5.07;;
9834;SDS011;4956;50.996;13.716;2022-07-23T06:07:09;6.20;;;5.47;;
9834;SDS011;4956;50.996;13.716;2022-07-23T06:10:32;8.13;;;6.15;;
9834;SDS011;4956;50.996;13.716;2022-07-23T06:13:52;7.35;;;5.97;;
9834;SDS011;4956;50.996;13.716;2022-07-23T06:17:15;6.90;;;6.30;;
9834;SDS011;4956;50.996;13.716;2022-07-23T06:20:36;6.43;;;5.83;;
9834;SDS011;4956;50.996;13.716;2022-07-23T06:23:56;7.57;;;6.30;;
9834;SDS011;4956;50.996;13.716;2022-07-23T06:27:18;6.97;;;6.28;;
9834;SDS011;4956;50.996;13.716;2022-07-23T06:30:38;8.60;;;7.50;;
9834;SDS011;4956;50.996;13.716;2022-07-23T06:33:58;8.40;;;7.60;;
9834;SDS011;4956;50.996;13.716;2022-07-23T06:37:19;8.55;;;7.40;;
9834;SDS011;4956;50.996;13.716;2022-07-23T06:40:40;7.88;;;7.07;;
9834;SDS011;4956;50.996;13.716;2022-07-23T06:44:00;9.00;;;7.95;;
9834;SDS011;4956;50.996;13.716;2022-07-23T06:47:23;9.10;;;8.20;;
9834;SDS011;4956;50.996;13.716;2022-07-23T06:50:44;9.13;;;7.80;;
9834;SDS011;4956;50.996;13.716;2022-07-23T06:54:04;10.48;;;8.23;;
9834;SDS011;4956;50.996;13.716;2022-07-23T06:57:24;9.52;;;8.52;;
9834;SDS011;4956;50.996;13.716;2022-07-23T07:00:45;8.82;;;7.70;;
9834;SDS011;4956;50.996;13.716;2022-07-23T07:04:06;10.02;;;8.23;;
9834;SDS011;4956;50.996;13.716;2022-07-23T07:07:26;9.40;;;7.95;;
9834;SDS011;4956;50.996;13.716;2022-07-23T07:10:46;9.50;;;7.50;;
9834;SDS011;4956;50.996;13.716;2022-07-23T07:14:07;8.77;;;7.57;;
9834;SDS011;4956;50.996;13.716;2022-07-23T07:17:27;10.55;;;8.55;;
9834;SDS011;4956;50.996;13.716;2022-07-23T07:20:48;8.00;;;7.20;;
9834;SDS011;4956;50.996;13.716;2022-07-23T07:24:08;7.72;;;6.93;;
9834;SDS011;4956;50.996;13.716;2022-07-23T07:27:31;9.57;;;7.80;;
9834;SDS011;4956;50.996;13.716;2022-07-23T07:30:51;10.43;;;8.30;;
9834;SDS011;4956;50.996;13.716;2022-07-23T07:34:11;9.83;;;7.60;;
9834;SDS011;4956;50.996;13.716;2022-07-23T07:37:32;9.30;;;8.00;;
9834;SDS011;4956;50.996;13.716;2022-07-23T07:40:52;7.47;;;6.78;;
9834;SDS011;4956;50.996;13.716;2022-07-23T07:44:12;8.27;;;7.43;;
9834;SDS011;4956;50.996;13.716;2022-07-23T07:47:33;8.50;;;7.13;;
9834;SDS011;4956;50.996;13.716;2022-07-23T07:50:53;9.50;;;8.03;;
9834;SDS011;4956;50.996;13.716;2022-07-23T07:54:13;10.33;;;8.50;;
9834;SDS011;4956;50.996;13.716;2022-07-23T07:57:34;10.80;;;8.20;;
9834;SDS011;4956;50.996;13.716;2022-07-23T08:00:54;10.00;;;9.00;;
9834;SDS011;4956;50.996;13.716;2022-07-23T08:04:14;8.53;;;7.67;;
9834;SDS011;4956;50.996;13.716;2022-07-23T08:07:35;9.37;;;7.60;;
9834;SDS011;4956;50.996;13.716;2022-07-23T08:10:55;9.88;;;7.82;;
9834;SDS011;4956;50.996;13.716;2022-07-23T08:14:16;9.53;;;8.50;;
9834;SDS011;4956;50.996;13.716;2022-07-23T08:17:36;8.97;;;7.77;;
9834;SDS011;4956;50.996;13.716;2022-07-23T08:20:56;12.75;;;9.18;;
9834;SDS011;4956;50.996;13.716;2022-07-23T08:24:17;11.07;;;8.50;;
9834;SDS011;4956;50.996;13.716;2022-07-23T08:27:37;8.40;;;7.23;;
9834;SDS011;4956;50.996;13.716;2022-07-23T08:30:57;10.17;;;8.00;;
9834;SDS011;4956;50.996;13.716;2022-07-23T08:34:17;9.60;;;7.23;;
9834;SDS011;4956;50.996;13.716;2022-07-23T08:37:38;11.13;;;8.47;;
9834;SDS011;4956;50.996;13.716;2022-07-23T08:40:58;7.37;;;6.67;;
9834;SDS011;4956;50.996;13.716;2022-07-23T08:44:18;7.63;;;6.82;;
9834;SDS011;4956;50.996;13.716;2022-07-23T08:47:39;7.50;;;6.80;;
9834;SDS011;4956;50.996;13.716;2022-07-23T08:51:00;8.35;;;7.20;;
9834;SDS011;4956;50.996;13.716;2022-07-23T08:54:21;8.40;;;7.57;;
9834;SDS011;4956;50.996;13.716;2022-07-23T08:57:42;8.27;;;7.47;;
9834;SDS011;4956;50.996;13.716;2022-07-23T09:01:02;10.55;;;9.00;;
9834;SDS011;4956;50.996;13.716;2022-07-23T09:04:22;10.63;;;9.00;;
9834;SDS011;4956;50.996;13.716;2022-07-23T09:11:32;7.28;;;6.57;;
9834;SDS011;4956;50.996;13.716;2022-07-23T09:14:52;7.33;;;6.63;;
9834;SDS011;4956;50.996;13.716;2022-07-23T09:18:13;8.33;;;7.50;;
9834;SDS011;4956;50.996;13.716;2022-07-23T09:21:38;9.70;;;6.57;;
9834;SDS011;4956;50.996;13.716;2022-07-23T09:25:09;9.13;;;6.88;;
9834;SDS011;4956;50.996;13.716;2022-07-23T09:28:31;7.72;;;6.93;;
9834;SDS011;4956;50.996;13.716;2022-07-23T09:35:14;7.68;;;6.70;;
9834;SDS011;4956;50.996;13.716;2022-07-23T09:38:34;9.33;;;6.80;;
9834;SDS011;4956;50.996;13.716;2022-07-23T09:42:20;7.10;;;6.40;;
9834;SDS011;4956;50.996;13.716;2022-07-23T09:45:41;6.93;;;6.22;;
9834;SDS011;4956;50.996;13.716;2022-07-23T09:49:09;10.37;;;7.10;;
9834;SDS011;4956;50.996;13.716;2022-07-23T09:52:32;7.65;;;6.43;;
9834;SDS011;4956;50.996;13.716;2022-07-23T09:55:53;7.45;;;6.72;;
9834;SDS011;4956;50.996;13.716;2022-07-23T09:59:17;7.68;;;6.88;;
9834;SDS011;4956;50.996;13.716;2022-07-23T10:02:39;6.15;;;5.55;;
9834;SDS011;4956;50.996;13.716;2022-07-23T10:06:18;7.00;;;6.38;;
9834;SDS011;4956;50.996;13.716;2022-07-23T10:09:57;7.05;;;6.38;;
9834;SDS011;4956;50.996;13.716;2022-07-23T10:13:38;10.05;;;7.70;;
9834;SDS011;4956;50.996;13.716;2022-07-23T10:17:48;7.32;;;6.55;;
9834;SDS011;4956;50.996;13.716;2022-07-23T10:21:08;9.00;;;6.75;;
9834;SDS011;4956;50.996;13.716;2022-07-23T10:24:36;7.88;;;6.70;;
9834;SDS011;4956;50.996;13.716;2022-07-23T10:42:26;7.85;;;6.53;;
9834;SDS011;4956;50.996;13.716;2022-07-23T10:45:53;6.93;;;6.22;;
9834;SDS011;4956;50.996;13.716;2022-07-23T10:49:21;7.57;;;6.90;;
9834;SDS011;4956;50.996;13.716;2022-07-23T11:00:24;7.45;;;6.75;;
9834;SDS011;4956;50.996;13.716;2022-07-23T11:03:55;7.28;;;6.57;;
9834;SDS011;4956;50.996;13.716;2022-07-23T11:07:16;8.63;;;6.93;;
9834;SDS011;4956;50.996;13.716;2022-07-23T11:14:03;7.78;;;6.80;;
9834;SDS011;4956;50.996;13.716;2022-07-23T11:17:23;7.70;;;6.20;;
9834;SDS011;4956;50.996;13.716;2022-07-23T11:20:47;7.88;;;6.55;;
9834;SDS011;4956;50.996;13.716;2022-07-23T11:24:08;8.43;;;6.87;;
9834;SDS011;4956;50.996;13.716;2022-07-23T11:27:41;6.97;;;6.28;;
9834;SDS011;4956;50.996;13.716;2022-07-23T11:31:09;7.13;;;6.40;;
9834;SDS011;4956;50.996;13.716;2022-07-23T11:34:41;9.30;;;6.43;;
9834;SDS011;4956;50.996;13.716;2022-07-23T11:38:18;8.63;;;6.13;;
9834;SDS011;4956;50.996;13.716;2022-07-23T11:41:46;7.32;;;6.07;;
9834;SDS011;4956;50.996;13.716;2022-07-23T11:45:07;8.20;;;6.43;;
9834;SDS011;4956;50.996;13.716;2022-07-23T11:48:29;7.25;;;5.75;;
9834;SDS011;4956;50.996;13.716;2022-07-23T11:52:09;7.93;;;5.65;;
9834;SDS011;4956;50.996;13.716;2022-07-23T11:55:30;7.93;;;6.05;;
9834;SDS011;4956;50.996;13.716;2022-07-23T11:58:54;10.43;;;6.13;;
9834;SDS011;4956;50.996;13.716;2022-07-23T12:02:15;7.03;;;5.50;;
9834;SDS011;4956;50.996;13.716;2022-07-23T12:05:37;5.93;;;5.43;;
9834;SDS011;4956;50.996;13.716;2022-07-23T12:08:57;6.55;;;5.95;;
9834;SDS011;4956;50.996;13.716;2022-07-23T12:12:18;8.20;;;6.30;;
9834;SDS011;4956;50.996;13.716;2022-07-23T12:15:40;6.65;;;5.88;;
9834;SDS011;4956;50.996;13.716;2022-07-23T12:19:02;7.03;;;6.32;;
9834;SDS011;4956;50.996;13.716;2022-07-23T12:22:23;6.97;;;6.28;;
9834;SDS011;4956;50.996;13.716;2022-07-23T12:25:45;7.60;;;6.80;;
9834;SDS011;4956;50.996;13.716;2022-07-23T12:29:06;9.07;;;6.68;;
9834;SDS011;4956;50.996;13.716;2022-07-23T12:32:27;7.90;;;7.10;;
9834;SDS011;4956;50.996;13.716;2022-07-23T12:35:48;8.45;;;7.15;;
9834;SDS011;4956;50.996;13.716;2022-07-23T12:39:08;8.43;;;7.47;;
9834;SDS011;4956;50.996;13.716;2022-07-23T12:42:29;11.10;;;7.87;;
9834;SDS011;4956;50.996;13.716;2022-07-23T12:46:06;8.23;;;7.43;;
9834;SDS011;4956;50.996;13.716;2022-07-23T12:49:27;7.38;;;6.68;;
9834;SDS011;4956;50.996;13.716;2022-07-23T12:52:48;7.88;;;7.05;;
9834;SDS011;4956;50.996;13.716;2022-07-23T12:56:09;9.23;;;6.90;;
9834;SDS011;4956;50.996;13.716;2022-07-23T12:59:31;7.75;;;6.95;;
9834;SDS011;4956;50.996;13.716;2022-07-23T13:02:51;8.60;;;7.47;;
9834;SDS011;4956;50.996;13.716;2022-07-23T13:06:12;8.27;;;7.40;;
9834;SDS011;4956;50.996;13.716;2022-07-23T13:09:32;9.57;;;7.63;;
9834;SDS011;4956;50.996;13.716;2022-07-23T13:12:53;8.40;;;7.43;;
9834;SDS011;4956;50.996;13.716;2022-07-23T13:16:13;8.97;;;7.77;;
9834;SDS011;4956;50.996;13.716;2022-07-23T13:19:34;9.88;;;7.80;;
9834;SDS011;4956;50.996;13.716;2022-07-23T13:22:54;11.13;;;7.53;;
9834;SDS011;4956;50.996;13.716;2022-07-23T13:26:14;8.37;;;7.53;;
9834;SDS011;4956;50.996;13.716;2022-07-23T13:29:35;8.77;;;7.70;;
9834;SDS011;4956;50.996;13.716;2022-07-23T13:32:55;10.30;;;7.30;;
9834;SDS011;4956;50.996;13.716;2022-07-23T13:36:15;8.27;;;7.57;;
9834;SDS011;4956;50.996;13.716;2022-07-23T13:39:35;9.27;;;7.90;;
9834;SDS011;4956;50.996;13.716;2022-07-23T13:42:56;8.17;;;7.43;;
9834;SDS011;4956;50.996;13.716;2022-07-23T13:46:16;7.75;;;7.05;;
9834;SDS011;4956;50.996;13.716;2022-07-23T13:49:36;9.00;;;8.20;;
9834;SDS011;4956;50.996;13.716;2022-07-23T13:52:57;10.37;;;9.37;;
9834;SDS011;4956;50.996;13.716;2022-07-23T13:56:17;9.77;;;8.20;;
9834;SDS011;4956;50.996;13.716;2022-07-23T13:59:37;9.00;;;7.85;;
9834;SDS011;4956;50.996;13.716;2022-07-23T14:02:58;10.50;;;9.45;;
9834;SDS011;4956;50.996;13.716;2022-07-23T14:06:19;8.88;;;8.07;;
9834;SDS011;4956;50.996;13.716;2022-07-23T14:09:39;10.90;;;8.37;;
9834;SDS011;4956;50.996;13.716;2022-07-23T14:13:00;10.60;;;9.20;;
9834;SDS011;4956;50.996;13.716;2022-07-23T14:16:20;9.32;;;8.30;;
9834;SDS011;4956;50.996;13.716;2022-07-23T14:19:40;8.90;;;8.00;;
9834;SDS011;4956;50.996;13.716;2022-07-23T14:23:00;8.33;;;7.53;;
9834;SDS011;4956;50.996;13.716;2022-07-23T14:26:21;8.40;;;7.60;;
9834;SDS011;4956;50.996;13.716;2022-07-23T14:29:41;9.30;;;8.20;;
9834;SDS011;4956;50.996;13.716;2022-07-23T14:33:02;8.75;;;7.95;;
9834;SDS011;4956;50.996;13.716;2022-07-23T14:36:24;8.82;;;7.50;;
9834;SDS011;4956;50.996;13.716;2022-07-23T14:39:45;8.75;;;7.85;;
9834;SDS011;4956;50.996;13.716;2022-07-23T14:43:06;8.93;;;8.02;;
9834;SDS011;4956;50.996;13.716;2022-07-23T14:46:26;8.47;;;7.67;;
9834;SDS011;4956;50.996;13.716;2022-07-23T14:49:47;9.05;;;7.63;;
9834;SDS011;4956;50.996;13.716;2022-07-23T14:53:07;9.15;;;8.15;;
9834;SDS011;4956;50.996;13.716;2022-07-23T14:56:27;9.02;;;7.15;;
9834;SDS011;4956;50.996;13.716;2022-07-23T14:59:48;8.67;;;7.80;;
9834;SDS011;4956;50.996;13.716;2022-07-23T15:03:08;8.97;;;8.00;;
9834;SDS011;4956;50.996;13.716;2022-07-23T15:06:28;9.10;;;8.20;;
9834;SDS011;4956;50.996;13.716;2022-07-23T15:09:49;9.27;;;8.20;;
9834;SDS011;4956;50.996;13.716;2022-07-23T15:13:09;8.73;;;7.77;;
9834;SDS011;4956;50.996;13.716;2022-07-23T15:16:30;8.80;;;7.60;;
9834;SDS011;4956;50.996;13.716;2022-07-23T15:19:51;8.90;;;8.05;;
9834;SDS011;4956;50.996;13.716;2022-07-23T15:23:11;7.88;;;7.07;;
9834;SDS011;4956;50.996;13.716;2022-07-23T15:26:31;8.67;;;7.77;;
9834;SDS011;4956;50.996;13.716;2022-07-23T15:29:52;9.50;;;8.52;;
9834;SDS011;4956;50.996;13.716;2022-07-23T15:33:12;9.67;;;8.37;;
9834;SDS011;4956;50.996;13.716;2022-07-23T15:36:32;9.43;;;8.43;;
9834;SDS011;4956;50.996;13.716;2022-07-23T15:39:53;11.55;;;8.57;;
9834;SDS011;4956;50.996;13.716;2022-07-23T15:43:13;10.37;;;9.27;;
9834;SDS011;4956;50.996;13.716;2022-07-23T15:46:33;11.32;;;8.95;;
9834;SDS011;4956;50.996;13.716;2022-07-23T15:49:54;10.65;;;9.55;;
9834;SDS011;4956;50.996;13.716;2022-07-23T15:53:15;13.70;;;9.52;;
9834;SDS011;4956;50.996;13.716;2022-07-23T15:56:35;11.20;;;10.18;;
9834;SDS011;4956;50.996;13.716;2022-07-23T15:59:55;12.00;;;10.70;;
9834;SDS011;4956;50.996;13.716;2022-07-23T16:03:18;11.63;;;10.43;;
9834;SDS011;4956;50.996;13.716;2022-07-23T16:06:39;11.67;;;10.47;;
9834;SDS011;4956;50.996;13.716;2022-07-23T16:10:01;12.13;;;10.93;;
9834;SDS011;4956;50.996;13.716;2022-07-23T16:13:21;13.02;;;11.70;;
9834;SDS011;4956;50.996;13.716;2022-07-23T16:16:42;12.53;;;10.90;;
9834;SDS011;4956;50.996;13.716;2022-07-23T16:20:02;11.85;;;10.75;;
9834;SDS011;4956;50.996;13.716;2022-07-23T16:23:23;13.63;;;12.13;;
9834;SDS011;4956;50.996;13.716;2022-07-23T16:26:44;13.38;;;12.05;;
9834;SDS011;4956;50.996;13.716;2022-07-23T16:30:05;13.93;;;11.77;;
9834;SDS011;4956;50.996;13.716;2022-07-23T16:33:26;13.82;;;12.10;;
9834;SDS011;4956;50.996;13.716;2022-07-23T16:36:46;13.20;;;11.48;;
9834;SDS011;4956;50.996;13.716;2022-07-23T16:40:07;12.00;;;10.63;;
9834;SDS011;4956;50.996;13.716;2022-07-23T16:43:28;12.85;;;11.55;;
9834;SDS011;4956;50.996;13.716;2022-07-23T16:46:51;14.02;;;11.73;;
9834;SDS011;4956;50.996;13.716;2022-07-23T16:50:11;14.18;;;11.40;;
9834;SDS011;4956;50.996;13.716;2022-07-23T16:53:31;13.23;;;11.40;;
9834;SDS011;4956;50.996;13.716;2022-07-23T16:56:52;13.35;;;11.57;;
9834;SDS011;4956;50.996;13.716;2022-07-23T17:00:13;12.00;;;10.80;;
9834;SDS011;4956;50.996;13.716;2022-07-23T17:03:34;12.65;;;10.90;;
9834;SDS011;4956;50.996;13.716;2022-07-23T17:06:54;12.60;;;10.67;;
9834;SDS011;4956;50.996;13.716;2022-07-23T17:10:15;14.07;;;10.63;;
9834;SDS011;4956;50.996;13.716;2022-07-23T17:13:35;12.68;;;11.38;;
9834;SDS011;4956;50.996;13.716;2022-07-23T17:16:55;12.67;;;10.63;;
9834;SDS011;4956;50.996;13.716;2022-07-23T17:20:16;13.13;;;11.73;;
9834;SDS011;4956;50.996;13.716;2022-07-23T17:23:36;13.93;;;12.00;;
9834;SDS011;4956;50.996;13.716;2022-07-23T17:26:57;15.43;;;12.03;;
9834;SDS011;4956;50.996;13.716;2022-07-23T17:30:17;11.57;;;10.38;;
9834;SDS011;4956;50.996;13.716;2022-07-23T17:33:39;12.00;;;10.63;;
9834;SDS011;4956;50.996;13.716;2022-07-23T17:36:59;13.27;;;10.60;;
9834;SDS011;4956;50.996;13.716;2022-07-23T17:40:19;11.53;;;9.97;;
9834;SDS011;4956;50.996;13.716;2022-07-23T17:43:40;10.30;;;9.30;;
9834;SDS011;4956;50.996;13.716;2022-07-23T17:47:00;10.73;;;9.63;;
9834;SDS011;4956;50.996;13.716;2022-07-23T17:50:20;10.67;;;9.57;;
9834;SDS011;4956;50.996;13.716;2022-07-23T17:53:41;11.18;;;9.90;;
9834;SDS011;4956;50.996;13.716;2022-07-23T17:57:01;12.20;;;9.80;;
9834;SDS011;4956;50.996;13.716;2022-07-23T18:00:23;9.98;;;8.98;;
9834;SDS011;4956;50.996;13.716;2022-07-23T18:03:45;9.98;;;8.98;;
9834;SDS011;4956;50.996;13.716;2022-07-23T18:07:06;10.23;;;9.13;;
9834;SDS011;4956;50.996;13.716;2022-07-23T18:10:26;10.47;;;8.70;;
9834;SDS011;4956;50.996;13.716;2022-07-23T18:13:47;10.35;;;8.77;;
9834;SDS011;4956;50.996;13.716;2022-07-23T18:17:07;12.85;;;9.00;;
9834;SDS011;4956;50.996;13.716;2022-07-23T18:20:27;9.23;;;8.33;;
9834;SDS011;4956;50.996;13.716;2022-07-23T18:23:48;9.35;;;8.32;;
9834;SDS011;4956;50.996;13.716;2022-07-23T18:27:08;9.93;;;8.10;;
9834;SDS011;4956;50.996;13.716;2022-07-23T18:30:28;9.95;;;8.95;;
9834;SDS011;4956;50.996;13.716;2022-07-23T18:33:49;9.40;;;8.37;;
9834;SDS011;4956;50.996;13.716;2022-07-23T18:37:09;9.35;;;8.35;;
9834;SDS011;4956;50.996;13.716;2022-07-23T18:40:30;9.20;;;8.30;;
9834;SDS011;4956;50.996;13.716;2022-07-23T18:43:51;8.50;;;7.70;;
9834;SDS011;4956;50.996;13.716;2022-07-23T18:47:11;9.05;;;7.65;;
9834;SDS011;4956;50.996;13.716;2022-07-23T18:50:32;8.73;;;7.83;;
9834;SDS011;4956;50.996;13.716;2022-07-23T18:53:53;9.57;;;8.13;;
9834;SDS011;4956;50.996;13.716;2022-07-23T18:57:13;9.40;;;8.47;;
9834;SDS011;4956;50.996;13.716;2022-07-23T19:00:35;9.05;;;8.15;;
9834;SDS011;4956;50.996;13.716;2022-07-23T19:03:57;8.63;;;7.72;;
9834;SDS011;4956;50.996;13.716;2022-07-23T19:07:17;10.95;;;8.52;;
9834;SDS011;4956;50.996;13.716;2022-07-23T19:10:39;9.07;;;8.25;;
9834;SDS011;4956;50.996;13.716;2022-07-23T19:13:59;9.15;;;8.25;;
9834;SDS011;4956;50.996;13.716;2022-07-23T19:17:19;9.38;;;8.48;;
9834;SDS011;4956;50.996;13.716;2022-07-23T19:20:39;9.20;;;7.93;;
9834;SDS011;4956;50.996;13.716;2022-07-23T19:24:00;8.82;;;8.02;;
9834;SDS011;4956;50.996;13.716;2022-07-23T19:27:20;10.23;;;8.27;;
9834;SDS011;4956;50.996;13.716;2022-07-23T19:30:41;9.70;;;8.60;;
9834;SDS011;4956;50.996;13.716;2022-07-23T19:34:01;9.90;;;8.85;;
9834;SDS011;4956;50.996;13.716;2022-07-23T19:37:21;9.95;;;8.70;;
9834;SDS011;4956;50.996;13.716;2022-07-23T19:40:42;9.32;;;8.43;;
9834;SDS011;4956;50.996;13.716;2022-07-23T19:44:02;9.57;;;8.68;;
9834;SDS011;4956;50.996;13.716;2022-07-23T19:47:23;10.10;;;9.07;;
9834;SDS011;4956;50.996;13.716;2022-07-23T19:50:43;9.77;;;8.77;;
9834;SDS011;4956;50.996;13.716;2022-07-23T19:54:03;9.82;;;8.93;;
9834;SDS011;4956;50.996;13.716;2022-07-23T19:57:24;9.88;;;8.88;;
9834;SDS011;4956;50.996;13.716;2022-07-23T20:00:44;9.88;;;8.98;;
9834;SDS011;4956;50.996;13.716;2022-07-23T20:04:04;10.40;;;9.40;;
9834;SDS011;4956;50.996;13.716;2022-07-23T20:07:25;10.40;;;9.35;;
9834;SDS011;4956;50.996;13.716;2022-07-23T20:10:45;10.52;;;9.52;;
9834;SDS011;4956;50.996;13.716;2022-07-23T20:14:06;9.83;;;8.83;;
9834;SDS011;4956;50.996;13.716;2022-07-23T20:17:27;9.73;;;8.73;;
9834;SDS011;4956;50.996;13.716;2022-07-23T20:20:48;10.00;;;9.10;;
9834;SDS011;4956;50.996;13.716;2022-07-23T20:24:08;10.10;;;9.10;;
9834;SDS011;4956;50.996;13.716;2022-07-23T20:27:30;11.73;;;10.63;;
9834;SDS011;4956;50.996;13.716;2022-07-23T20:30:50;11.10;;;9.80;;
9834;SDS011;4956;50.996;13.716;2022-07-23T20:34:14;10.98;;;9.68;;
9834;SDS011;4956;50.996;13.716;2022-07-23T20:37:37;10.65;;;9.63;;
9834;SDS011;4956;50.996;13.716;2022-07-23T20:40:57;11.27;;;10.10;;
9834;SDS011;4956;50.996;13.716;2022-07-23T20:44:18;12.05;;;10.85;;
9834;SDS011;4956;50.996;13.716;2022-07-23T20:47:39;10.88;;;9.88;;
9834;SDS011;4956;50.996;13.716;2022-07-23T20:50:59;11.00;;;9.90;;
9834;SDS011;4956;50.996;13.716;2022-07-23T20:54:19;11.27;;;10.23;;
9834;SDS011;4956;50.996;13.716;2022-07-23T20:57:40;11.33;;;10.30;;